32°C Temp
15°C Dewpoint
36% Humidity
Temperature
3 KM/H
2 MPH
2 KTS
230°
South West

Wind Speed
Clear
Conditions
Pressure 1017.92 (hPa) - 30.06 (in)
Visibility 6.2 (mi) - 10.0 (km)

Current Conditions
LEPA
Location 15(km)
Metar :LEPA 230830Z 23002KT CAVOK 32/15 Q1018 NOSIG
Tue 23rd July 09:30 am

Airport
  Metar Aviation API Data Provided by https://www.checkwx.com/ PHP scripts by weather34.com ©2019